Terminal Aerodrome Forecast
Issued by NWS Albany, NY

Current Version | Previous Version | Text Only | Print | Product List | Glossary On
Versions: 1 2 3 4 5 6 7 8 9 10 11 12 13 14 15 16 17 18 19 20 21 22 23 24 25 26
000
FTUS41 KALY 131746
TAFPOU
TAF
KPOU 131746Z 1318/1418 VRB03KT P6SM BKN070
     FM140500 VRB03KT P6SM VCSH BKN035 PROB30 1407/1411 4SM -SHRA
      OVC007
     FM141100 16004KT 5SM -SHRA BR BKN007=

USA.gov is the U.S. government's official web portal to all federal, state and local government web resources and services.